SLAM7: Spring River at La Russell, MO

                                SHEF ID:       SLAM7     Spring River at La Russell, MO
STATION TYPE:

STAGE RIV-FLOW
ft cfs
Ccp-Rev Ccp-Rev
(America/Chicago)
07/06 00:00 3.00 507
07/06 01:00 2.94 484
07/06 02:00 2.89 466
07/06 03:00 2.84 447
07/06 04:00 2.80 433
07/06 05:00 2.77 422
07/06 06:00 2.73 408
07/06 07:00 2.71 401
07/06 08:00 2.69 394
07/06 09:00 2.67 387
07/06 10:00 2.65 381
07/06 11:00 2.64 377
07/06 12:00 2.62 371
07/06 13:00 2.61 367
07/06 14:00 2.59 361
07/06 15:00 2.57 354
07/06 16:00 2.55 348
07/06 17:00 2.54 344
07/06 18:00 2.52 338
07/06 19:00 2.52 338
07/06 20:00 2.50 332
07/06 21:00 2.50 332
07/06 22:00 2.48 325
07/06 23:00 2.47 322
Data processed at Wed 08Jul2026 15:26 GMT

NOTICE: If you are parsing this page

Please convert to using our Data API. Starting early 2026 we will be migrating to: https://water.usace.army.mil with modern pages rendered in JavaScript. When this migration completes you will no longer be able to scrape this page! CWMSDataAPI (CDA)

Timeseries IDs (TSIDs)

TSIDs used from left to right in the data table
LARU.Stage.Inst.1Hour.0.Ccp-Rev
LARU.Flow.Inst.1Hour.0.Ccp-Rev

                            

All information presented herein is the property of the government of the United States of America and may be revised or deleted at any time without prior notice. Dissemination of this information without the expressed written consent of the Public Affairs Office, Tulsa District U.S. Army Corps of Engineers is strictly prohibited. These data are gathered electronically and, as presented, have NOT undergone any form of quality control. These data are NOT guaranteed to be valid or correct.